Time;durP1;ratioP1;P1;durP2;ratioP2;P2;SDS_P1;SDS_P2;PMS_P1;PMS_P2;Temp;Humidity;BMP_temperature;BMP_pressure;BME280_temperature;BME280_humidity;BME280_pressure;Samples;Min_cycle;Max_cycle;Signal;HPM_P1;HPM_P2
2022/01/07 00:00:28;;;;;;;16.80;6.35;;;;;;;-1.24;100.00;101059.97;5022426;28;20064;-64
2022/01/07 00:02:57;;;;;;;16.25;7.47;;;;;;;-1.26;100.00;101059.13;5045521;28;20140;-64
2022/01/07 00:05:29;;;;;;;23.73;6.95;;;;;;;-1.21;100.00;101052.22;5021033;28;20045;-64
2022/01/07 00:07:56;;;;;;;17.83;5.90;;;;;;;-1.20;100.00;101058.22;5047402;28;20127;-64
2022/01/07 00:10:24;;;;;;;13.77;5.80;;;;;;;-1.21;100.00;101053.94;5034799;28;20064;-64
2022/01/07 00:12:51;;;;;;;18.00;5.80;;;;;;;-1.16;100.00;101055.63;5050888;28;20059;-64
2022/01/07 00:15:19;;;;;;;19.60;6.63;;;;;;;-1.21;100.00;101047.03;5026529;28;20457;-64
2022/01/07 00:17:47;;;;;;;16.83;5.38;;;;;;;-1.22;100.00;101047.03;5042948;28;20057;-64
2022/01/07 00:20:15;;;;;;;17.92;6.22;;;;;;;-1.28;100.00;101045.34;5044900;28;20045;-64
2022/01/07 00:22:43;;;;;;;21.85;6.43;;;;;;;-1.30;100.00;101049.66;5042934;28;20796;-64
2022/01/07 00:25:12;;;;;;;17.52;5.60;;;;;;;-1.29;100.00;101041.03;5020530;28;20453;-64
2022/01/07 00:27:40;;;;;;;14.88;5.40;;;;;;;-1.34;100.00;101051.38;5026459;28;20069;-64
2022/01/07 00:30:10;;;;;;;15.27;5.78;;;;;;;-1.30;100.00;101052.25;5036253;28;20049;-64
2022/01/07 00:32:37;;;;;;;18.38;6.15;;;;;;;-1.31;100.00;101050.50;5044334;28;20071;-64
2022/01/07 00:35:05;;;;;;;15.00;5.68;;;;;;;-1.32;100.00;101046.22;5043907;28;20673;-64
2022/01/07 00:37:32;;;;;;;11.63;5.30;;;;;;;-1.32;100.00;101044.47;5043079;28;20520;-63
2022/01/07 00:39:59;;;;;;;17.38;6.22;;;;;;;-1.34;100.00;101043.66;5054144;28;20094;-64
2022/01/07 00:42:27;;;;;;;20.95;6.28;;;;;;;-1.35;100.00;101041.03;5042600;28;20056;-64
2022/01/07 00:44:54;;;;;;;11.18;5.40;;;;;;;-1.36;100.00;101047.09;5033143;28;20141;-64
2022/01/07 00:47:21;;;;;;;15.27;5.00;;;;;;;-1.35;100.00;101043.63;5043017;28;20833;-63
2022/01/07 00:49:48;;;;;;;20.90;5.95;;;;;;;-1.35;100.00;101036.75;5062084;28;20098;-61
2022/01/07 00:52:15;;;;;;;22.08;5.15;;;;;;;-1.30;100.00;101042.78;5023345;28;20605;-63
2022/01/07 00:54:42;;;;;;;24.85;6.07;;;;;;;-1.27;100.00;101039.28;5041796;28;20517;-64
2022/01/07 00:57:09;;;;;;;21.42;5.85;;;;;;;-1.27;100.00;101036.72;5041438;28;20056;-63
2022/01/07 00:59:37;;;;;;;16.27;4.97;;;;;;;-1.29;100.00;101035.88;5040289;28;20421;-63
2022/01/07 01:02:05;;;;;;;20.02;6.50;;;;;;;-1.29;100.00;101031.56;5036979;28;20045;-62
2022/01/07 01:04:42;;;;;;;17.98;5.75;;;;;;;-1.23;100.00;101037.56;5036977;28;20053;-63
2022/01/07 01:07:14;;;;;;;15.35;5.07;;;;;;;-1.27;100.00;101035.00;5035019;28;20049;-63
2022/01/07 01:09:42;;;;;;;12.57;4.82;;;;;;;-1.19;100.00;101034.13;5037691;28;20061;-63
2022/01/07 01:12:10;;;;;;;16.73;4.75;;;;;;;-1.22;100.00;101034.97;5008979;28;20049;-63
2022/01/07 01:14:38;;;;;;;18.35;4.97;;;;;;;-1.27;100.00;101024.66;5036657;28;20172;-63
2022/01/07 01:17:06;;;;;;;15.68;5.07;;;;;;;-1.23;100.00;101025.50;5037203;28;20053;-64
2022/01/07 01:19:33;;;;;;;18.80;5.75;;;;;;;-1.28;100.00;101038.44;5036266;28;20053;-64
2022/01/07 01:22:01;;;;;;;17.30;5.07;;;;;;;-1.25;100.00;101029.84;5052110;28;20139;-63
2022/01/07 01:24:28;;;;;;;16.75;5.85;;;;;;;-1.25;100.00;101022.09;5033536;28;20079;-63
2022/01/07 01:26:55;;;;;;;16.48;4.80;;;;;;;-1.31;100.00;101015.22;5019932;28;20049;-64
2022/01/07 01:29:22;;;;;;;17.45;5.50;;;;;;;-1.32;100.00;101020.38;5034000;28;20517;-64
2022/01/07 01:31:49;;;;;;;25.52;6.15;;;;;;;-1.23;100.00;101010.00;5036808;28;20053;-63
2022/01/07 01:34:17;;;;;;;16.52;5.45;;;;;;;-1.24;100.00;101016.06;5020706;28;20075;-63
2022/01/07 01:36:44;;;;;;;22.65;6.18;;;;;;;-1.32;100.00;101013.50;5026122;28;20048;-63
2022/01/07 01:39:12;;;;;;;18.67;5.85;;;;;;;-1.32;100.00;101007.47;5017645;28;20053;-64
2022/01/07 01:41:40;;;;;;;25.05;6.70;;;;;;;-1.34;100.00;101009.22;5031118;28;20170;-63
2022/01/07 01:44:08;;;;;;;22.02;6.03;;;;;;;-1.37;100.00;100991.13;5025560;28;20055;-64
2022/01/07 01:46:35;;;;;;;15.98;5.85;;;;;;;-1.42;100.00;100988.56;5032052;28;20086;-62
2022/01/07 01:49:03;;;;;;;21.13;5.75;;;;;;;-1.45;100.00;100979.97;5040792;28;20131;-62
2022/01/07 01:51:31;;;;;;;15.52;6.03;;;;;;;-1.48;100.00;100972.25;5018750;28;20058;-64
2022/01/07 01:53:58;;;;;;;21.98;6.20;;;;;;;-1.48;100.00;100983.44;5053664;28;20424;-64
2022/01/07 01:56:25;;;;;;;17.13;6.28;;;;;;;-1.52;100.00;100978.31;5042953;28;20578;-64
2022/01/07 01:58:52;;;;;;;20.92;6.40;;;;;;;-1.47;100.00;100972.25;5019543;28;20680;-64
2022/01/07 02:01:20;;;;;;;21.60;6.60;;;;;;;-1.48;100.00;100980.00;5037940;28;20045;-63
2022/01/07 02:03:48;;;;;;;17.00;6.43;;;;;;;-1.43;100.00;100976.53;5030700;28;20049;-63
2022/01/07 02:06:15;;;;;;;19.17;6.32;;;;;;;-1.45;100.00;100972.22;5043032;28;20057;-64
2022/01/07 02:08:43;;;;;;;22.42;7.22;;;;;;;-1.44;100.00;100972.25;5037984;28;20041;-63
2022/01/07 02:11:10;;;;;;;21.33;7.22;;;;;;;-1.44;100.00;100964.50;5042163;28;20049;-64
2022/01/07 02:13:38;;;;;;;22.25;6.55;;;;;;;-1.47;100.00;100961.91;5040574;28;20544;-64
2022/01/07 02:16:05;;;;;;;26.45;7.55;;;;;;;-1.47;100.00;100958.47;5043001;28;20049;-64
2022/01/07 02:18:32;;;;;;;21.65;6.80;;;;;;;-1.53;100.00;100951.63;5042912;28;20083;-64
2022/01/07 02:20:59;;;;;;;24.00;7.18;;;;;;;-1.50;100.00;100955.91;5043724;28;20053;-63
2022/01/07 02:23:26;;;;;;;15.88;6.38;;;;;;;-1.59;100.00;100962.81;5043866;28;20063;-63
2022/01/07 02:25:56;;;;;;;21.25;7.60;;;;;;;-1.69;100.00;100949.97;5042987;28;20151;-64
2022/01/07 02:28:24;;;;;;;20.65;7.03;;;;;;;-1.72;100.00;100953.41;5017208;28;20558;-61
2022/01/07 02:30:51;;;;;;;26.27;7.88;;;;;;;-1.66;100.00;100955.13;5036030;28;20532;-63
2022/01/07 02:33:18;;;;;;;19.92;7.47;;;;;;;-1.70;100.00;100959.44;5036725;28;20536;-64
2022/01/07 02:35:46;;;;;;;25.77;6.53;;;;;;;-1.71;100.00;100951.66;5041024;28;20131;-63
2022/01/07 02:38:15;;;;;;;22.33;6.57;;;;;;;-1.68;100.00;100941.34;5037014;28;20929;-64
2022/01/07 02:49:08;;;;;;;15.32;6.25;;;;;;;-1.61;100.00;100923.25;5027965;28;20040;-64
2022/01/07 02:51:36;;;;;;;22.45;7.45;;;;;;;-1.62;100.00;100916.38;5018748;28;20057;-64
2022/01/07 02:54:04;;;;;;;18.27;7.57;;;;;;;-1.59;100.00;100921.50;5046054;28;20217;-64
2022/01/07 02:56:31;;;;;;;16.77;6.07;;;;;;;-1.63;100.00;100924.97;5022978;28;20064;-64
2022/01/07 02:58:58;;;;;;;20.38;6.75;;;;;;;-1.63;100.00;100922.38;5037954;28;20414;-62
2022/01/07 03:01:25;;;;;;;18.70;6.35;;;;;;;-1.60;100.00;100927.53;5039279;28;20513;-63
2022/01/07 03:03:53;;;;;;;17.50;6.75;;;;;;;-1.55;100.00;100915.47;5047601;28;20053;-63
2022/01/07 03:06:23;;;;;;;23.73;7.38;;;;;;;-1.58;100.00;100918.06;5017048;28;20056;-62
2022/01/07 03:08:50;;;;;;;14.07;6.30;;;;;;;-1.58;100.00;100920.63;5046223;28;20095;-63
2022/01/07 03:11:19;;;;;;;20.77;6.82;;;;;;;-1.61;100.00;100910.34;5039622;28;20053;-64
2022/01/07 03:13:47;;;;;;;19.63;7.25;;;;;;;-1.60;100.00;100916.38;5038969;28;20051;-63
2022/01/07 03:16:14;;;;;;;21.70;6.63;;;;;;;-1.60;100.00;100909.47;5041018;28;20062;-64
2022/01/07 03:18:41;;;;;;;16.65;7.07;;;;;;;-1.62;100.00;100902.59;5018779;28;20136;-63
2022/01/07 03:21:09;;;;;;;22.45;6.78;;;;;;;-1.59;100.00;100915.50;5041964;28;20199;-63
2022/01/07 03:23:37;;;;;;;19.85;7.00;;;;;;;-1.67;100.00;100910.34;5044062;28;20070;-63
2022/01/07 03:26:04;;;;;;;21.60;6.40;;;;;;;-1.69;100.00;100904.34;5043108;28;20573;-63
2022/01/07 03:28:31;;;;;;;16.15;7.32;;;;;;;-1.68;100.00;100906.06;5039406;28;20508;-63
2022/01/07 03:30:58;;;;;;;16.67;5.93;;;;;;;-1.73;100.00;100896.63;5034874;28;20052;-63
2022/01/07 03:33:26;;;;;;;27.25;7.75;;;;;;;-1.78;100.00;100901.81;5041010;28;20053;-62
2022/01/07 03:35:53;;;;;;;20.83;7.28;;;;;;;-1.75;100.00;100895.78;5043399;28;20051;-63
2022/01/07 03:38:20;;;;;;;18.95;6.43;;;;;;;-1.68;100.00;100900.03;5038055;28;20047;-63
2022/01/07 03:40:48;;;;;;;13.25;6.10;;;;;;;-1.74;100.00;100894.91;5041289;28;20057;-63
2022/01/07 03:43:16;;;;;;;20.15;7.45;;;;;;;-1.65;100.00;100888.00;5045881;28;20045;-63
2022/01/07 03:45:44;;;;;;;16.63;6.80;;;;;;;-1.61;100.00;100888.84;5035883;28;20619;-63
2022/01/07 03:48:11;;;;;;;25.73;7.50;;;;;;;-1.65;100.00;100895.72;5051405;28;20045;-63
2022/01/07 03:50:38;;;;;;;17.55;7.38;;;;;;;-1.56;100.00;100887.09;5038369;28;20057;-63
2022/01/07 03:53:05;;;;;;;26.88;7.80;;;;;;;-1.55;100.00;100896.53;5052033;28;20124;-63
2022/01/07 03:55:33;;;;;;;16.27;6.85;;;;;;;-1.58;100.00;100884.50;5047259;28;20408;-63
2022/01/07 03:58:00;;;;;;;17.73;6.50;;;;;;;-1.58;100.00;100881.06;5050786;28;20136;-63
2022/01/07 04:00:32;;;;;;;21.02;7.85;;;;;;;-1.58;100.00;100881.91;5049264;28;20045;-63
2022/01/07 04:03:01;;;;;;;15.48;7.20;;;;;;;-1.55;100.00;100871.56;5030191;28;20088;-63
2022/01/07 04:05:29;;;;;;;22.75;8.23;;;;;;;-1.58;100.00;100873.31;5041820;28;20049;-63
2022/01/07 04:07:56;;;;;;;14.23;7.32;;;;;;;-1.54;100.00;100872.44;5042676;28;20131;-63
2022/01/07 04:10:23;;;;;;;20.33;7.28;;;;;;;-1.55;100.00;100870.72;5033313;28;20064;-64
2022/01/07 04:12:50;;;;;;;17.73;6.93;;;;;;;-1.50;100.00;100871.56;5046940;28;20061;-65
2022/01/07 04:15:18;;;;;;;21.40;8.13;;;;;;;-1.52;100.00;100867.28;5015795;28;20083;-64
2022/01/07 04:17:47;;;;;;;17.95;6.90;;;;;;;-1.46;100.00;100874.97;5015867;28;20041;-62
2022/01/07 04:20:16;;;;;;;24.83;7.35;;;;;;;-1.43;100.00;100865.50;5051118;28;20135;-63
2022/01/07 04:22:44;;;;;;;18.77;7.85;;;;;;;-1.39;100.00;100864.63;5044979;28;20209;-63
2022/01/07 04:25:17;;;;;;;12.77;6.53;;;;;;;-1.37;100.00;100859.44;5041914;28;20160;-64
2022/01/07 04:27:49;;;;;;;16.55;6.97;;;;;;;-1.29;100.00;100857.66;5041623;28;20076;-64
2022/01/07 04:30:17;;;;;;;14.80;6.55;;;;;;;-1.32;100.00;100855.09;5036655;28;20506;-63
2022/01/07 04:32:44;;;;;;;17.10;7.05;;;;;;;-1.33;100.00;100845.63;5043947;28;20139;-63
2022/01/07 04:35:12;;;;;;;16.60;6.72;;;;;;;-1.33;100.00;100841.31;5024309;28;20517;-64
2022/01/07 04:37:39;;;;;;;16.88;7.63;;;;;;;-1.25;100.00;100841.28;5043589;28;20136;-63
2022/01/07 04:40:09;;;;;;;15.10;6.82;;;;;;;-1.21;100.00;100842.97;5023809;28;20406;-63
2022/01/07 04:42:36;;;;;;;15.95;7.10;;;;;;;-1.25;100.00;100841.28;5038231;28;20432;-64
2022/01/07 04:45:05;;;;;;;14.82;6.05;;;;;;;-1.24;100.00;100832.66;5036756;28;20053;-63
2022/01/07 04:47:35;;;;;;;18.55;7.00;;;;;;;-1.20;100.00;100830.91;5047255;28;20200;-63
2022/01/07 04:50:16;;;;;;;15.00;6.65;;;;;;;-1.19;100.00;100824.88;5046709;28;20049;-63
2022/01/07 04:52:44;;;;;;;11.18;6.32;;;;;;;-1.21;100.00;100824.03;5044889;28;20077;-63
2022/01/07 04:55:17;;;;;;;15.38;6.80;;;;;;;-1.19;100.00;100819.72;5041748;28;20043;-64
2022/01/07 04:57:44;;;;;;;17.30;7.75;;;;;;;-1.12;100.00;100811.06;5034783;28;20127;-61
2022/01/07 05:00:15;;;;;;;14.45;5.90;;;;;;;-1.10;100.00;100810.16;5025091;28;20584;-62
2022/01/07 05:02:43;;;;;;;15.75;6.57;;;;;;;-1.08;100.00;100810.13;5021003;28;20088;-62
2022/01/07 05:05:10;;;;;;;13.50;5.80;;;;;;;-1.11;100.00;100811.03;5039839;28;20133;-62
2022/01/07 05:07:37;;;;;;;12.68;6.10;;;;;;;-1.04;100.00;100806.66;5027682;28;20071;-62
2022/01/07 05:10:06;;;;;;;13.30;4.95;;;;;;;-1.05;100.00;100803.22;5041020;28;20045;-62
2022/01/07 05:12:34;;;;;;;13.63;6.30;;;;;;;-1.11;100.00;100798.13;5041816;28;20059;-63
2022/01/07 05:15:02;;;;;;;15.95;6.47;;;;;;;-1.11;100.00;100798.13;5015211;28;20063;-63
2022/01/07 05:17:29;;;;;;;13.45;5.47;;;;;;;-1.06;100.00;100786.00;5035480;28;20064;-63
2022/01/07 05:19:56;;;;;;;17.02;5.57;;;;;;;-1.09;100.00;100793.78;5043843;28;20057;-63
2022/01/07 05:22:23;;;;;;;14.52;5.78;;;;;;;-1.06;100.00;100790.31;5048590;28;20074;-63
2022/01/07 05:24:51;;;;;;;11.10;5.70;;;;;;;-1.05;100.00;100786.84;5033428;28;20479;-63
2022/01/07 05:27:18;;;;;;;12.13;4.95;;;;;;;-1.06;100.00;100780.84;5031148;28;20061;-63
2022/01/07 05:29:45;;;;;;;19.88;5.78;;;;;;;-0.99;100.00;100781.66;5036607;28;20049;-63
2022/01/07 05:32:12;;;;;;;15.82;4.85;;;;;;;-0.95;100.00;100778.16;5038559;28;20148;-63
2022/01/07 05:34:39;;;;;;;15.95;4.93;;;;;;;-0.97;100.00;100774.72;5008381;28;20185;-61
2022/01/07 05:37:09;;;;;;;13.98;5.55;;;;;;;-0.97;100.00;100766.97;5041719;28;20883;-63
2022/01/07 05:39:36;;;;;;;17.90;4.97;;;;;;;-1.00;100.00;100766.16;5047403;28;20044;-63
2022/01/07 05:42:05;;;;;;;11.73;4.88;;;;;;;-0.91;100.00;100761.75;5035533;28;20050;-63
2022/01/07 05:44:32;;;;;;;10.20;4.78;;;;;;;-0.96;100.00;100765.25;5027851;28;20049;-63
2022/01/07 05:46:59;;;;;;;14.50;5.45;;;;;;;-1.07;100.00;100753.28;5036288;28;20061;-63
2022/01/07 05:49:26;;;;;;;27.38;5.63;;;;;;;-1.16;100.00;100753.38;5036526;28;20219;-62
2022/01/07 05:51:53;;;;;;;9.25;4.35;;;;;;;-0.98;100.00;100752.34;5037533;28;20049;-63
2022/01/07 05:54:21;;;;;;;11.63;4.82;;;;;;;-1.03;100.00;100749.81;5039906;28;20143;-63
2022/01/07 05:56:48;;;;;;;9.45;5.45;;;;;;;-1.00;100.00;100740.31;5037130;28;20048;-63
2022/01/07 05:59:15;;;;;;;12.07;4.75;;;;;;;-1.04;100.00;100739.47;5035109;28;20135;-62
2022/01/07 06:01:42;;;;;;;11.20;4.82;;;;;;;-0.97;100.00;100735.13;5016508;28;20132;-64
2022/01/07 06:04:09;;;;;;;13.57;4.88;;;;;;;-0.92;100.00;100728.19;5030837;28;20135;-64
2022/01/07 06:06:37;;;;;;;18.20;4.97;;;;;;;-0.85;100.00;100724.66;5036486;28;20405;-63
2022/01/07 06:09:04;;;;;;;10.48;5.43;;;;;;;-0.85;100.00;100722.09;5041163;28;20045;-63
2022/01/07 06:11:31;;;;;;;12.20;4.90;;;;;;;-0.87;100.00;100718.63;5033793;28;20085;-62
2022/01/07 06:13:59;;;;;;;14.90;5.22;;;;;;;-0.86;100.00;100722.94;5040751;28;20051;-63
2022/01/07 06:16:26;;;;;;;20.48;5.57;;;;;;;-0.90;100.00;100732.47;5035108;28;20212;-63
2022/01/07 06:18:57;;;;;;;10.10;4.90;;;;;;;-0.87;100.00;100729.84;5040117;28;20064;-64
2022/01/07 06:21:24;;;;;;;11.93;4.85;;;;;;;-0.81;100.00;100727.19;5036542;28;20057;-63
2022/01/07 06:23:51;;;;;;;12.43;5.13;;;;;;;-0.87;100.00;100723.81;5037240;28;20069;-63
2022/01/07 06:26:18;;;;;;;16.52;5.05;;;;;;;-0.85;100.00;100729.84;5037612;28;20056;-63
2022/01/07 06:28:46;;;;;;;13.68;5.35;;;;;;;-0.80;100.00;100715.97;5036093;28;20153;-63
2022/01/07 06:31:13;;;;;;;14.13;4.60;;;;;;;-0.70;100.00;100714.16;5027027;28;20454;-63
2022/01/07 06:33:40;;;;;;;16.50;5.78;;;;;;;-0.78;100.00;100723.72;5034183;28;20592;-64
2022/01/07 06:36:07;;;;;;;19.25;6.80;;;;;;;-0.68;100.00;100716.72;5020722;28;20077;-63
2022/01/07 06:38:34;;;;;;;11.00;4.88;;;;;;;-0.72;100.00;100720.19;5044815;28;20135;-65
2022/01/07 06:41:01;;;;;;;12.52;4.97;;;;;;;-0.73;100.00;100716.75;5033037;28;20046;-64
2022/01/07 06:43:29;;;;;;;11.05;5.78;;;;;;;-0.76;100.00;100711.66;5025161;28;20076;-63
2022/01/07 06:45:56;;;;;;;14.38;5.05;;;;;;;-0.75;100.00;100715.94;5026396;28;20449;-63
2022/01/07 06:48:23;;;;;;;20.35;5.13;;;;;;;-0.79;100.00;100714.25;5049438;28;20143;-64
2022/01/07 06:50:54;;;;;;;9.32;4.40;;;;;;;-0.69;100.00;100721.03;5017699;28;20037;-64
2022/01/07 06:53:21;;;;;;;17.45;5.20;;;;;;;-0.80;100.00;100712.53;5037706;28;20195;-63
2022/01/07 06:55:56;;;;;;;18.55;5.78;;;;;;;-0.70;100.00;100706.41;5041034;28;20433;-63
2022/01/07 06:58:24;;;;;;;17.52;5.25;;;;;;;-0.80;100.00;100700.47;5040182;28;20099;-63
2022/01/07 07:00:51;;;;;;;14.45;5.15;;;;;;;-0.78;100.00;100706.47;5039099;28;20059;-63
2022/01/07 07:03:19;;;;;;;20.90;4.82;;;;;;;-0.75;100.00;100707.31;5045529;28;20081;-63
2022/01/07 07:05:46;;;;;;;16.13;5.13;;;;;;;-0.80;100.00;100709.97;5044873;28;20044;-63
2022/01/07 07:08:13;;;;;;;14.60;5.00;;;;;;;-0.67;100.00;100710.69;5038092;28;20584;-63
2022/01/07 07:10:40;;;;;;;12.63;5.07;;;;;;;-0.62;100.00;100720.09;5031092;28;20055;-63
2022/01/07 07:13:08;;;;;;;9.02;4.40;;;;;;;-0.60;99.96;100708.00;5035774;28;20057;-63
2022/01/07 07:15:35;;;;;;;11.75;4.57;;;;;;;-0.57;99.81;100704.53;5052621;28;20174;-62
2022/01/07 07:18:02;;;;;;;18.58;5.88;;;;;;;-0.61;99.43;100706.28;5036714;28;20053;-63
2022/01/07 07:20:29;;;;;;;11.82;5.63;;;;;;;-0.59;100.00;100699.34;5043786;28;20810;-62
2022/01/07 07:22:56;;;;;;;11.05;4.72;;;;;;;-0.51;99.71;100696.69;5039857;28;20137;-62
2022/01/07 07:25:25;;;;;;;11.70;5.45;;;;;;;-0.49;99.38;100701.84;5039463;28;20054;-61
2022/01/07 07:27:52;;;;;;;14.40;4.55;;;;;;;-0.51;99.03;100694.09;5025308;28;20080;-65
2022/01/07 07:30:19;;;;;;;13.60;5.05;;;;;;;-0.48;98.99;100698.38;5035559;28;20127;-62
2022/01/07 07:32:52;;;;;;;14.77;4.63;;;;;;;-0.54;98.48;100696.72;5030901;28;20740;-62
2022/01/07 07:37:47;;;;;;;15.27;5.68;;;;;;;0.10;98.02;100688.09;5026858;28;20042;-63
2022/01/07 07:40:16;;;;;;;11.73;5.18;;;;;;;0.34;98.58;100686.00;5037380;28;20166;-61
2022/01/07 07:42:43;;;;;;;11.10;4.68;;;;;;;0.20;95.68;100684.47;5054473;28;20053;-62
2022/01/07 07:45:13;;;;;;;11.40;4.60;;;;;;;0.27;95.24;100682.66;5034637;28;20057;-61
2022/01/07 07:47:40;;;;;;;16.60;5.03;;;;;;;0.40;95.09;100680.72;5028851;28;20397;-62
2022/01/07 07:50:14;;;;;;;11.77;4.55;;;;;;;0.44;93.84;100677.19;5037018;28;20124;-62
2022/01/07 07:52:41;;;;;;;10.65;4.90;;;;;;;0.52;93.04;100671.88;5033021;28;20055;-62
2022/01/07 07:55:09;;;;;;;14.80;5.00;;;;;;;0.52;92.83;100664.97;5055102;28;20536;-63
2022/01/07 07:57:36;;;;;;;12.75;4.45;;;;;;;0.63;93.53;100675.13;5053199;28;20059;-63
2022/01/07 08:00:04;;;;;;;13.00;4.90;;;;;;;0.72;92.69;100668.09;5052507;28;20040;-62
2022/01/07 08:02:32;;;;;;;18.60;5.82;;;;;;;0.88;91.15;100676.41;5048155;28;20394;-62
2022/01/07 08:04:59;;;;;;;13.43;4.53;;;;;;;0.59;90.55;100670.91;5039423;28;20041;-63
2022/01/07 08:07:27;;;;;;;11.30;4.00;;;;;;;0.44;91.35;100654.72;5049616;28;20084;-64
2022/01/07 08:09:55;;;;;;;9.88;4.45;;;;;;;0.35;91.23;100661.81;5032074;28;20057;-63
2022/01/07 08:12:39;;;;;;;11.88;4.13;;;;;;;0.23;92.24;100658.56;5035165;28;20140;-63
2022/01/07 08:17:52;;;;;;;;;;;;;;;0.20;93.11;100656.00;5049146;28;20099;-63
2022/01/07 08:20:19;;;;;;;14.88;5.05;;;;;;;0.18;92.39;100660.38;5034435;28;19921;-64
2022/01/07 08:22:47;;;;;;;13.75;4.55;;;;;;;0.12;93.95;100646.66;5026288;28;20579;-63
2022/01/07 08:25:18;;;;;;;14.90;4.70;;;;;;;0.18;93.47;100649.13;5046271;28;20107;-64
2022/01/07 08:27:45;;;;;;;11.40;4.25;;;;;;;0.21;92.86;100638.72;5044840;28;20493;-59
2022/01/07 08:30:19;;;;;;;11.20;4.57;;;;;;;0.19;93.12;100635.31;5044886;28;20508;-59
2022/01/07 08:35:35;;;;;;;13.70;4.97;;;;;;;0.21;93.75;100630.97;5045530;28;20428;-60
2022/01/07 08:38:03;;;;;;;17.75;5.28;;;;;;;0.29;93.42;100634.28;5045545;28;20071;-60
2022/01/07 08:40:31;;;;;;;13.40;4.57;;;;;;;0.40;92.47;100628.91;5044255;28;20076;-58
2022/01/07 08:42:58;;;;;;;14.98;5.20;;;;;;;0.35;93.26;100639.34;5047993;28;20247;-58
2022/01/07 08:45:25;;;;;;;16.08;5.55;;;;;;;0.37;92.30;100637.59;5043614;28;20456;-61
2022/01/07 08:47:53;;;;;;;18.50;5.38;;;;;;;0.30;93.09;100624.78;5048147;28;20127;-60
2022/01/07 08:50:20;;;;;;;20.80;5.05;;;;;;;0.31;92.74;100634.25;5043494;28;20052;-61
2022/01/07 08:52:47;;;;;;;17.63;5.00;;;;;;;0.40;93.08;100639.28;5046893;28;20144;-59
2022/01/07 08:55:14;;;;;;;16.13;4.40;;;;;;;0.48;92.14;100629.63;5026611;28;20053;-61
2022/01/07 08:57:41;;;;;;;18.98;5.28;;;;;;;0.50;92.44;100623.56;5042341;28;20143;-61
2022/01/07 09:00:09;;;;;;;16.15;5.72;;;;;;;0.49;92.31;100621.84;5041306;28;20636;-61
2022/01/07 09:02:36;;;;;;;12.57;5.15;;;;;;;0.65;92.28;100619.84;5026691;28;20045;-60
2022/01/07 09:05:03;;;;;;;19.08;4.63;;;;;;;0.68;91.38;100621.53;5038356;28;20080;-60
2022/01/07 09:07:30;;;;;;;17.88;4.65;;;;;;;0.71;91.56;100613.69;5044935;28;20059;-61
2022/01/07 09:09:58;;;;;;;15.75;4.57;;;;;;;0.91;90.83;100615.91;5042597;28;20151;-61
2022/01/07 09:12:25;;;;;;;18.05;5.03;;;;;;;1.07;90.61;100612.13;5046160;28;20057;-60
2022/01/07 09:14:52;;;;;;;20.08;5.20;;;;;;;1.05;90.34;100613.03;5042812;28;20178;-61
2022/01/07 09:17:19;;;;;;;8.88;4.00;;;;;;;0.98;89.94;100614.88;5026007;28;20050;-59
2022/01/07 09:19:47;;;;;;;14.10;4.88;;;;;;;0.96;90.78;100609.75;5043733;28;20048;-59
2022/01/07 09:22:14;;;;;;;12.88;4.57;;;;;;;1.03;90.46;100610.47;5044470;28;20045;-59
2022/01/07 09:24:41;;;;;;;13.48;4.55;;;;;;;1.09;90.18;100614.69;5041149;28;20474;-60
2022/01/07 09:27:08;;;;;;;16.10;5.53;;;;;;;1.15;90.29;100606.78;5042743;28;20496;-60
2022/01/07 09:29:36;;;;;;;15.38;4.57;;;;;;;1.22;89.74;100619.59;5048118;28;20106;-58
2022/01/07 09:32:04;;;;;;;11.20;4.93;;;;;;;1.23;89.08;100605.75;5050586;28;20109;-59
2022/01/07 09:34:32;;;;;;;11.48;4.93;;;;;;;1.36;89.22;100602.91;5040367;28;20053;-61
2022/01/07 09:37:05;;;;;;;14.93;5.00;;;;;;;1.33;89.38;100610.72;5042749;28;20069;-61
2022/01/07 09:39:33;;;;;;;15.02;5.03;;;;;;;1.38;88.70;100604.56;5037862;28;20060;-60
2022/01/07 09:42:00;;;;;;;18.98;4.95;;;;;;;1.52;88.40;100602.50;5050430;28;20063;-61
2022/01/07 09:44:28;;;;;;;15.55;5.47;;;;;;;1.65;87.90;100597.06;5045840;28;20060;-60
2022/01/07 09:46:55;;;;;;;15.40;5.57;;;;;;;1.75;87.48;100594.19;5027265;28;20059;-61
2022/01/07 09:49:23;;;;;;;10.93;4.60;;;;;;;1.78;86.49;100594.13;5037880;28;20060;-58
2022/01/07 09:51:51;;;;;;;15.60;5.38;;;;;;;1.85;86.82;100591.41;5043763;28;20469;-60
2022/01/07 09:54:18;;;;;;;12.05;5.15;;;;;;;1.93;86.33;100597.25;5042439;28;20091;-59
2022/01/07 09:56:45;;;;;;;11.13;5.10;;;;;;;1.95;85.61;100585.97;5027933;28;20044;-58
2022/01/07 09:59:12;;;;;;;13.15;6.03;;;;;;;2.07;85.37;100570.94;5039342;28;20070;-59
2022/01/07 10:02:00;;;;;;;11.40;4.93;;;;;;;2.27;84.68;100579.09;5047262;28;20152;-60
2022/01/07 10:04:34;;;;;;;16.50;4.88;;;;;;;2.34;83.60;100572.84;5040141;28;20500;-60
2022/01/07 10:07:20;;;;;;;16.15;6.47;;;;;;;2.57;83.03;100571.38;5044556;28;20122;-60
2022/01/07 10:10:06;;;;;;;16.70;5.80;;;;;;;2.56;82.91;100560.16;5039576;28;20533;-57
2022/01/07 10:12:56;;;;;;;11.45;4.80;;;;;;;2.63;82.10;100560.84;5042337;28;20049;-61
2022/01/07 10:15:25;;;;;;;14.95;5.13;;;;;;;2.81;82.33;100560.34;5039324;28;20049;-61
2022/01/07 10:17:56;;;;;;;20.95;6.05;;;;;;;2.97;80.78;100559.03;5046266;28;20049;-59
2022/01/07 10:20:25;;;;;;;17.05;4.90;;;;;;;2.91;80.98;100550.53;5041011;28;20055;-61
2022/01/07 10:23:15;;;;;;;23.73;6.22;;;;;;;3.07;80.69;100545.75;5029502;28;20710;-62
2022/01/07 10:25:47;;;;;;;13.57;5.00;;;;;;;3.08;80.39;100534.44;5041665;28;20059;-60
2022/01/07 10:28:16;;;;;;;12.15;5.05;;;;;;;2.99;79.72;100543.38;5046291;28;20080;-59
2022/01/07 10:30:52;;;;;;;12.77;4.97;;;;;;;2.97;79.93;100540.81;5044764;28;20052;-60
2022/01/07 10:33:27;;;;;;;12.30;4.65;;;;;;;3.01;80.33;100545.00;5050144;28;20162;-59
2022/01/07 10:36:13;;;;;;;13.52;5.20;;;;;;;2.94;79.88;100535.69;5046654;28;20147;-58
2022/01/07 10:38:51;;;;;;;;;;;;;;;3.01;80.29;100531.16;5048186;28;20052;-59
2022/01/07 10:41:20;;;;;;;10.73;4.30;;;;;;;3.00;80.40;100524.25;5041610;28;20039;-66
2022/01/07 10:43:48;;;;;;;14.57;6.47;;;;;;;2.97;80.05;100529.53;5037453;28;20136;-60
2022/01/07 10:46:23;;;;;;;10.88;5.03;;;;;;;2.91;79.86;100524.53;5047851;28;20627;-61
2022/01/07 10:48:58;;;;;;;13.03;4.20;;;;;;;2.85;80.13;100522.97;5044553;28;21221;-61
2022/01/07 10:51:29;;;;;;;13.10;4.30;;;;;;;2.81;80.48;100525.69;5043552;28;20460;-60
2022/01/07 10:53:57;;;;;;;7.82;4.53;;;;;;;2.84;80.82;100523.88;5040952;28;20053;-60
2022/01/07 10:56:35;;;;;;;10.57;4.45;;;;;;;2.81;80.48;100515.28;5044444;28;20045;-60
2022/01/07 10:59:08;;;;;;;13.23;4.68;;;;;;;2.67;81.01;100520.88;5042644;28;20049;-60
2022/01/07 11:01:59;;;;;;;14.18;4.63;;;;;;;2.70;81.48;100516.47;5049483;28;20054;-59
2022/01/07 11:04:30;;;;;;;15.05;4.80;;;;;;;2.72;81.19;100506.00;5047534;28;20064;-61
2022/01/07 11:06:58;;;;;;;13.75;4.30;;;;;;;2.68;81.20;100512.19;5041901;28;20049;-61
2022/01/07 11:09:26;;;;;;;13.38;4.68;;;;;;;2.52;81.50;100517.81;5039854;28;20403;-59
2022/01/07 11:11:55;;;;;;;13.27;5.55;;;;;;;2.57;81.84;100509.03;5039604;28;20103;-60
2022/01/07 11:14:24;;;;;;;13.40;4.43;;;;;;;2.61;81.55;100495.94;5038899;28;20529;-61
2022/01/07 11:16:53;;;;;;;9.25;4.47;;;;;;;2.60;82.19;100506.34;5034460;28;20057;-60
2022/01/07 11:19:23;;;;;;;12.27;4.75;;;;;;;2.57;82.10;100499.50;5042877;28;20065;-61
2022/01/07 11:21:52;;;;;;;21.25;5.53;;;;;;;2.64;81.92;100497.56;5044363;28;20057;-59
2022/01/07 11:24:36;;;;;;;16.00;5.00;;;;;;;2.50;82.01;100488.41;5040155;28;20139;-61
2022/01/07 11:27:08;;;;;;;14.90;4.82;;;;;;;2.53;82.35;100490.09;5043937;28;20064;-59
2022/01/07 11:29:56;;;;;;;11.15;4.32;;;;;;;2.46;83.18;100497.19;5042635;28;20140;-60
2022/01/07 11:32:25;;;;;;;12.85;4.90;;;;;;;2.54;82.71;100495.22;5043310;28;20573;-58
2022/01/07 11:34:53;;;;;;;10.52;4.72;;;;;;;2.59;83.00;100487.31;5043736;28;20072;-60
2022/01/07 11:37:37;;;;;;;10.52;4.53;;;;;;;2.61;83.37;100488.13;5043904;28;20079;-60
2022/01/07 11:40:05;;;;;;;13.13;4.88;;;;;;;2.51;83.90;100474.53;5034078;28;20147;-61